createdAt,value
2018-11-01T00:01:59.816Z,98444.89
2018-11-01T00:05:06.602Z,98444.66
2018-11-01T00:08:13.222Z,98447.80
2018-11-01T00:11:19.901Z,98442.94
2018-11-01T00:14:24.963Z,98438.25
2018-11-01T00:17:29.997Z,98436.31
2018-11-01T00:20:37.111Z,98438.56
2018-11-01T00:23:42.132Z,98446.16
2018-11-01T00:26:49.155Z,98450.86
2018-11-01T00:29:55.829Z,98458.14
2018-11-01T00:33:00.833Z,98462.84
2018-11-01T00:36:05.851Z,98457.61
2018-11-01T00:39:13.458Z,98470.50
2018-11-01T00:42:18.482Z,98473.03
2018-11-01T00:45:25.563Z,98482.38
2018-11-01T00:48:32.449Z,98482.42
2018-11-01T00:51:39.629Z,98473.84
2018-11-01T00:54:46.863Z,98470.94
2018-11-01T00:57:53.607Z,98482.94
2018-11-01T01:01:00.804Z,98485.47
2018-11-01T01:04:07.177Z,98484.71
2018-11-01T01:07:16.129Z,98474.79
2018-11-01T01:10:22.769Z,98464.86
2018-11-01T01:13:29.515Z,98457.88
2018-11-01T01:16:36.529Z,98457.23
2018-11-01T01:19:45.718Z,98459.77
2018-11-01T01:22:54.642Z,98448.06
2018-11-01T01:26:00.666Z,98442.39
2018-11-01T01:29:07.271Z,98446.30
2018-11-01T01:32:13.925Z,98443.02
2018-11-01T01:35:20.980Z,98436.45
2018-11-01T01:38:27.662Z,98436.09
2018-11-01T01:41:32.685Z,98433.57
2018-11-01T01:44:41.789Z,98438.33
2018-11-01T01:47:49.631Z,98437.06
2018-11-01T01:50:56.366Z,98429.89
2018-11-01T01:54:03.386Z,98423.77
2018-11-01T01:57:10.346Z,98416.16
2018-11-01T02:00:18.245Z,98408.05
2018-11-01T02:03:25.010Z,98406.53
2018-11-01T02:06:31.763Z,98388.33
2018-11-01T02:09:38.441Z,98399.14
2018-11-01T02:12:45.395Z,98417.73
2018-11-01T02:15:52.435Z,98418.67
2018-11-01T02:19:01.756Z,98405.77
2018-11-01T02:22:08.750Z,98392.85
2018-11-01T02:25:17.561Z,98396.72
2018-11-01T02:28:22.610Z,98393.67
2018-11-01T02:31:29.727Z,98392.46
2018-11-01T02:34:36.669Z,98402.16
2018-11-01T02:37:44.261Z,98404.38
2018-11-01T02:40:50.975Z,98393.61
2018-11-01T02:43:57.738Z,98405.96
2018-11-01T02:47:04.843Z,98413.58
2018-11-01T02:50:12.657Z,98400.50
2018-11-01T02:53:19.721Z,98392.34
2018-11-01T02:56:26.773Z,98389.36
2018-11-01T02:59:33.784Z,98388.09
2018-11-01T03:03:19.525Z,98381.23
2018-11-01T03:06:26.221Z,98355.20
2018-11-01T03:09:34.525Z,98353.11
2018-11-01T03:12:40.134Z,98355.37
2018-11-01T03:15:47.142Z,98349.70
2018-11-01T03:18:54.230Z,98346.34
2018-11-01T03:22:00.918Z,98348.83
2018-11-01T03:25:08.272Z,98351.53
2018-11-01T03:28:15.318Z,98363.62
2018-11-01T03:31:21.965Z,98367.59
2018-11-01T03:34:28.650Z,98379.16
2018-11-01T03:37:35.625Z,98376.55
2018-11-01T03:40:40.654Z,98387.91
2018-11-01T03:43:47.747Z,98381.23
2018-11-01T03:46:57.078Z,98371.70
2018-11-01T03:50:05.642Z,98354.04
2018-11-01T03:53:10.683Z,98345.61
2018-11-01T03:56:19.658Z,98335.77
2018-11-01T03:59:27.982Z,98319.73
2018-11-01T04:02:35.159Z,98314.65
2018-11-01T04:05:42.289Z,98315.03
2018-11-01T04:08:48.307Z,98307.27
2018-11-01T04:12:02.765Z,98326.58
2018-11-01T04:15:56.524Z,98333.56
2018-11-01T04:19:03.889Z,98345.66
2018-11-01T04:22:08.909Z,98357.19
2018-11-01T04:25:21.684Z,98369.73
2018-11-01T04:28:28.801Z,98364.11
2018-11-01T04:31:35.334Z,98361.80
2018-11-01T04:34:42.123Z,98362.17
2018-11-01T04:37:49.056Z,98363.39
2018-11-01T04:40:55.949Z,98349.45
2018-11-01T04:44:02.751Z,98356.30
2018-11-01T04:47:09.594Z,98345.44
2018-11-01T04:50:16.467Z,98345.78
2018-11-01T04:53:21.507Z,98340.37
2018-11-01T04:56:28.641Z,98332.58
2018-11-01T04:59:35.209Z,98317.38
2018-11-01T05:02:42.681Z,98320.53
2018-11-01T05:05:54.549Z,98332.09
2018-11-01T05:09:03.192Z,98337.08
2018-11-01T05:15:18.047Z,98339.75
2018-11-01T05:18:24.525Z,98336.57
2018-11-01T05:21:30.857Z,98322.48
2018-11-01T05:24:37.451Z,98315.84
2018-11-01T05:27:44.436Z,98315.48
2018-11-01T05:30:51.532Z,98333.61
2018-11-01T05:33:59.414Z,98326.67
2018-11-01T05:37:06.402Z,98337.39
2018-11-01T05:40:13.474Z,98342.78
2018-11-01T05:43:24.269Z,98335.75
2018-11-01T05:46:30.930Z,98344.41
2018-11-01T05:49:37.591Z,98347.77
2018-11-01T05:52:42.610Z,98357.15
2018-11-01T05:55:49.318Z,98352.23
2018-11-01T05:58:56.318Z,98349.31
2018-11-01T06:02:05.207Z,98355.82
2018-11-01T06:05:12.210Z,98353.95
2018-11-01T06:08:23.050Z,98342.82
2018-11-01T06:11:29.749Z,98340.83
2018-11-01T06:14:34.810Z,98340.06
2018-11-01T06:17:41.895Z,98348.21
2018-11-01T06:20:47.004Z,98353.06
2018-11-01T06:23:55.987Z,98351.19
2018-11-01T06:27:01.025Z,98343.42
2018-11-01T06:30:12.456Z,98339.17
2018-11-01T06:33:17.443Z,98340.12
2018-11-01T06:36:27.243Z,98340.28
2018-11-01T06:39:33.937Z,98332.06
2018-11-01T06:42:42.542Z,98315.63
2018-11-01T06:45:51.166Z,98321.45
2018-11-01T06:48:56.214Z,98327.03
2018-11-01T06:52:02.026Z,98327.53
2018-11-01T06:55:10.089Z,98319.40
2018-11-01T06:58:16.801Z,98317.80
2018-11-01T07:01:25.822Z,98322.65
2018-11-01T07:04:35.403Z,98329.81
2018-11-01T07:07:44.747Z,98322.09
2018-11-01T07:10:49.992Z,98321.45
2018-11-01T07:13:57.256Z,98308.50
2018-11-01T07:17:04.307Z,98307.81
2018-11-01T07:20:13.949Z,98306.34
2018-11-01T07:23:21.227Z,98301.34
2018-11-01T07:26:28.541Z,98290.25
2018-11-01T07:29:35.695Z,98278.39
2018-11-01T07:32:43.038Z,98277.65
2018-11-01T07:35:50.106Z,98278.19
2018-11-01T07:38:55.247Z,98277.56
2018-11-01T07:42:02.894Z,98294.00
2018-11-01T07:45:09.022Z,98298.38
2018-11-01T07:48:18.161Z,98299.20
2018-11-01T07:51:23.255Z,98310.35
2018-11-01T07:54:30.018Z,98312.77
2018-11-01T07:57:37.148Z,98321.44
2018-11-01T08:00:43.955Z,98310.35
2018-11-01T08:03:49.015Z,98305.46
2018-11-01T08:06:54.098Z,98293.33
2018-11-01T08:10:01.191Z,98291.94
2018-11-01T08:13:09.752Z,98290.88
2018-11-01T08:16:14.844Z,98289.90
2018-11-01T08:19:20.079Z,98294.01
2018-11-01T08:22:26.863Z,98300.77
2018-11-01T08:25:33.658Z,98300.00
2018-11-01T08:28:42.261Z,98305.97
2018-11-01T08:31:47.381Z,98305.52
2018-11-01T08:34:56.502Z,98306.59
2018-11-01T08:38:03.307Z,98303.81
2018-11-01T08:41:10.894Z,98301.02
2018-11-01T08:44:17.901Z,98294.44
2018-11-01T08:47:25.037Z,98297.52
2018-11-01T08:50:32.208Z,98294.72
2018-11-01T08:53:37.446Z,98296.41
2018-11-01T08:56:49.295Z,98299.58
2018-11-01T08:59:56.077Z,98295.10
2018-11-01T09:03:01.283Z,98297.16
2018-11-01T09:06:08.653Z,98289.89
2018-11-01T09:09:14.098Z,98288.98
2018-11-01T09:12:21.311Z,98301.49
2018-11-01T09:15:28.424Z,98315.38
2018-11-01T09:18:33.528Z,98325.83
2018-11-01T09:21:38.574Z,98317.28
2018-11-01T09:24:43.765Z,98323.80
2018-11-01T09:27:50.870Z,98340.98
2018-11-01T09:30:56.029Z,98335.98
2018-11-01T09:34:01.113Z,98328.04
2018-11-01T09:37:06.188Z,98332.06
2018-11-01T09:40:14.154Z,98338.77
2018-11-01T09:43:21.063Z,98333.99
2018-11-01T09:46:27.930Z,98358.44
2018-11-01T09:49:32.711Z,98359.95
2018-11-01T09:52:37.984Z,98375.52
2018-11-01T09:55:47.167Z,98366.01
2018-11-01T09:58:52.185Z,98364.05
2018-11-01T10:01:57.237Z,98360.41
2018-11-01T10:05:02.709Z,98354.10
2018-11-01T10:08:09.249Z,98354.59
2018-11-01T10:11:14.440Z,98367.52
2018-11-01T10:14:19.759Z,98361.12
2018-11-01T10:17:25.386Z,98354.77
2018-11-01T10:20:32.219Z,98329.79
2018-11-01T10:23:39.131Z,98311.05
2018-11-01T10:26:44.223Z,98308.69
2018-11-01T10:29:49.393Z,98288.86
2018-11-01T10:32:56.214Z,98284.06
2018-11-01T10:36:01.409Z,98279.84
2018-11-01T10:39:08.186Z,98282.10
2018-11-01T10:42:13.305Z,98284.55
2018-11-01T10:45:18.539Z,98285.52
2018-11-01T10:48:23.594Z,98286.77
2018-11-01T10:51:28.687Z,98278.77
2018-11-01T10:54:35.512Z,98283.89
2018-11-01T10:57:40.969Z,98279.20
2018-11-01T11:00:51.934Z,98274.19
2018-11-01T11:03:56.902Z,98266.95
2018-11-01T11:07:01.907Z,98280.37
2018-11-01T11:10:06.963Z,98282.20
2018-11-01T11:13:11.980Z,98283.95
2018-11-01T11:16:19.126Z,98273.15
2018-11-01T11:26:32.230Z,98275.88
2018-11-01T11:29:49.491Z,98272.75
2018-11-01T11:32:54.565Z,98267.22
2018-11-01T11:36:01.313Z,98269.23
2018-11-01T11:39:08.397Z,98268.38
2018-11-01T11:42:14.967Z,98256.64
2018-11-01T11:45:19.987Z,98261.94
2018-11-01T11:48:24.978Z,98277.64
2018-11-01T11:51:30.081Z,98293.31
2018-11-01T11:54:35.096Z,98300.89
2018-11-01T11:57:40.119Z,98327.00
2018-11-01T12:01:06.689Z,98327.64
2018-11-01T12:04:11.735Z,98336.47
2018-11-01T12:07:16.778Z,98342.55
2018-11-01T12:10:21.826Z,98342.64
2018-11-01T12:15:08.171Z,98338.71
2018-11-01T12:18:13.171Z,98339.70
2018-11-01T12:21:18.226Z,98330.90
2018-11-01T12:24:23.243Z,98334.60
2018-11-01T12:27:28.369Z,98335.94
2018-11-01T12:30:33.567Z,98334.22
2018-11-01T12:33:38.743Z,98329.77
2018-11-01T12:36:43.809Z,98326.38
2018-11-01T12:39:58.717Z,98318.84
2018-11-01T12:43:04.174Z,98313.18
2018-11-01T12:46:09.317Z,98318.69
2018-11-01T12:49:14.470Z,98321.26
2018-11-01T12:52:19.524Z,98321.84
2018-11-01T12:55:24.649Z,98323.84
2018-11-01T12:58:29.728Z,98317.11
2018-11-01T13:01:34.786Z,98318.47
2018-11-01T13:04:39.910Z,98307.16
2018-11-01T13:07:45.062Z,98307.86
2018-11-01T13:10:50.516Z,98296.98
2018-11-01T13:13:57.220Z,98289.81
2018-11-01T13:17:04.490Z,98298.45
2018-11-01T13:20:10.042Z,98312.47
2018-11-01T13:23:15.133Z,98297.93
2018-11-01T13:26:21.915Z,98306.92
2018-11-01T13:29:27.054Z,98312.70
2018-11-01T13:32:32.092Z,98307.28
2018-11-01T13:35:39.278Z,98307.55
2018-11-01T13:38:44.417Z,98304.31
2018-11-01T13:52:23.723Z,98286.13
2018-11-01T13:55:28.806Z,98299.44
2018-11-01T13:58:36.299Z,98284.70
2018-11-01T14:01:43.384Z,98288.17
2018-11-01T14:04:50.091Z,98285.52
2018-11-01T14:08:08.558Z,98279.11
2018-11-01T14:11:15.450Z,98315.78
2018-11-01T14:14:21.068Z,98306.23
2018-11-01T14:17:27.464Z,98305.79
2018-11-01T14:20:34.175Z,98301.61
2018-11-01T14:23:40.973Z,98317.58
2018-11-01T14:26:46.103Z,98307.70
2018-11-01T14:29:51.201Z,98317.22
2018-11-01T14:32:58.288Z,98314.64
2018-11-01T14:36:03.393Z,98306.70
2018-11-01T14:39:09.925Z,98307.98
2018-11-01T14:42:16.775Z,98309.75
2018-11-01T14:45:21.867Z,98320.85
2018-11-01T14:48:28.911Z,98319.16
2018-11-01T14:51:34.008Z,98316.52
2018-11-01T14:54:41.790Z,98320.19
2018-11-01T14:57:49.573Z,98308.40
2018-11-01T15:00:54.637Z,98313.44
2018-11-01T15:04:01.463Z,98312.73
2018-11-01T15:07:07.227Z,98308.58
2018-11-01T15:10:13.507Z,98309.50
2018-11-01T15:13:18.752Z,98315.52
2018-11-01T15:16:23.721Z,98315.23
2018-11-01T15:19:28.770Z,98306.63
2018-11-01T15:22:33.801Z,98314.42
2018-11-01T15:25:38.825Z,98316.65
2018-11-01T15:28:43.880Z,98328.73
2018-11-01T15:31:48.912Z,98323.73
2018-11-01T15:34:54.215Z,98329.37
2018-11-01T15:37:59.254Z,98325.29
2018-11-01T15:41:11.371Z,98327.08
2018-11-01T15:44:16.390Z,98336.02
2018-11-01T15:47:21.447Z,98340.03
2018-11-01T15:50:26.703Z,98341.72
2018-11-01T15:53:31.738Z,98349.28
2018-11-01T15:56:36.805Z,98350.83
2018-11-01T15:59:41.941Z,98345.48
2018-11-01T16:02:46.958Z,98352.75
2018-11-01T16:05:52.039Z,98351.83
2018-11-01T16:08:57.097Z,98351.53
2018-11-01T16:12:02.154Z,98359.53
2018-11-01T16:15:10.722Z,98359.23
2018-11-01T16:18:15.777Z,98364.78
2018-11-01T16:21:20.911Z,98366.80
2018-11-01T16:24:25.953Z,98360.97
2018-11-01T16:27:30.981Z,98358.70
2018-11-01T16:30:36.054Z,98363.61
2018-11-01T16:33:41.155Z,98365.93
2018-11-01T16:36:46.399Z,98362.16
2018-11-01T16:39:51.801Z,98355.52
2018-11-01T16:42:56.845Z,98357.27
2018-11-01T16:46:01.902Z,98369.91
2018-11-01T16:49:07.602Z,98369.68
2018-11-01T16:52:12.621Z,98375.83
2018-11-01T16:55:17.711Z,98375.72
2018-11-01T17:01:53.883Z,98375.06
2018-11-01T17:04:59.023Z,98378.90
2018-11-01T17:08:13.989Z,98371.89
2018-11-01T17:11:18.972Z,98386.05
2018-11-01T17:14:24.022Z,98395.75
2018-11-01T17:17:29.053Z,98412.70
2018-11-01T17:20:34.062Z,98421.52
2018-11-01T17:23:39.051Z,98427.38
2018-11-01T17:26:44.063Z,98438.60
2018-11-01T17:29:49.119Z,98451.60
2018-11-01T17:32:55.483Z,98455.92
2018-11-01T17:36:00.708Z,98471.96
2018-11-01T17:39:07.432Z,98470.44
2018-11-01T17:42:12.513Z,98471.45
2018-11-01T17:45:17.681Z,98473.47
2018-11-01T17:48:22.678Z,98476.16
2018-11-01T17:51:27.773Z,98480.58
2018-11-01T17:54:32.694Z,98488.22
2018-11-01T17:57:38.417Z,98492.28
2018-11-01T18:00:43.424Z,98508.59
2018-11-01T18:03:48.529Z,98511.22
2018-11-01T18:06:53.520Z,98507.75
2018-11-01T18:09:58.640Z,98519.44
2018-11-01T18:13:03.710Z,98518.88
2018-11-01T18:16:08.768Z,98518.38
2018-11-01T18:19:14.133Z,98512.95
2018-11-01T18:22:19.106Z,98501.00
2018-11-01T18:25:25.947Z,98502.74
2018-11-01T18:28:30.897Z,98500.41
2018-11-01T18:31:36.069Z,98507.25
2018-11-01T18:34:41.105Z,98515.28
2018-11-01T18:37:46.044Z,98509.55
2018-11-01T18:40:51.081Z,98499.62
2018-11-01T18:43:56.097Z,98523.81
2018-11-01T18:47:01.079Z,98537.84
2018-11-01T18:50:07.002Z,98533.75
2018-11-01T18:53:12.503Z,98532.09
2018-11-01T18:56:17.515Z,98543.38
2018-11-01T18:59:22.716Z,98544.94
2018-11-01T19:02:27.701Z,98554.13
2018-11-01T19:05:32.764Z,98557.17
2018-11-01T19:08:37.869Z,98561.55
2018-11-01T19:11:42.909Z,98557.51
2018-11-01T19:14:47.975Z,98561.09
2018-11-01T19:17:53.054Z,98558.78
2018-11-01T19:20:58.110Z,98558.39
2018-11-01T19:24:03.572Z,98545.25
2018-11-01T19:27:08.826Z,98548.09
2018-11-01T19:30:13.655Z,98550.66
2018-11-01T19:33:20.460Z,98550.90
2018-11-01T19:36:25.516Z,98552.43
2018-11-01T19:39:30.546Z,98543.80
2018-11-01T19:42:35.759Z,98540.88
2018-11-01T19:45:40.810Z,98543.04
2018-11-01T19:48:45.865Z,98542.56
2018-11-01T19:51:51.051Z,98542.27
2018-11-01T19:54:56.109Z,98552.77
2018-11-01T19:58:01.282Z,98562.96
2018-11-01T20:01:06.331Z,98568.15
2018-11-01T20:07:42.792Z,98585.27
2018-11-01T20:10:48.353Z,98584.64
2018-11-01T20:13:53.366Z,98592.11
2018-11-01T20:16:58.557Z,98599.75
2018-11-01T20:20:06.555Z,98593.00
2018-11-01T20:23:11.551Z,98599.08
2018-11-01T20:26:16.612Z,98596.60
2018-11-01T20:29:21.599Z,98605.45
2018-11-01T20:32:26.596Z,98610.08
2018-11-01T20:35:31.614Z,98608.06
2018-11-01T20:38:36.632Z,98606.88
2018-11-01T20:41:41.850Z,98601.03
2018-11-01T20:44:46.825Z,98608.09
2018-11-01T20:51:22.766Z,98619.45
2018-11-01T20:54:28.105Z,98620.66
2018-11-01T20:57:33.198Z,98625.16
2018-11-01T21:00:38.143Z,98623.28
2018-11-01T21:03:43.325Z,98632.01
2018-11-01T21:06:48.386Z,98637.14
2018-11-01T21:09:53.373Z,98636.47
2018-11-01T21:15:10.319Z,98644.48
2018-11-01T21:18:15.319Z,98645.93
2018-11-01T21:21:20.352Z,98654.03
2018-11-01T21:27:56.341Z,98657.14
2018-11-01T21:31:01.515Z,98653.48
2018-11-01T21:34:06.485Z,98664.09
2018-11-01T21:37:11.495Z,98665.45
2018-11-01T21:40:16.494Z,98663.41
2018-11-01T21:43:21.490Z,98663.61
2018-11-01T21:46:26.496Z,98674.69
2018-11-01T21:49:31.512Z,98672.84
2018-11-01T21:52:36.644Z,98682.22
2018-11-01T21:55:41.710Z,98684.23
2018-11-01T21:58:46.703Z,98687.91
2018-11-01T22:01:51.718Z,98680.80
2018-11-01T22:04:56.771Z,98672.50
2018-11-01T22:08:01.763Z,98685.13
2018-11-01T22:11:06.742Z,98680.45
2018-11-01T22:14:11.734Z,98676.88
2018-11-01T22:17:16.725Z,98658.72
2018-11-01T22:20:21.770Z,98645.48
2018-11-01T22:23:26.928Z,98619.60
2018-11-01T22:26:32.014Z,98624.20
2018-11-01T22:29:37.026Z,98612.59
2018-11-01T22:32:42.610Z,98620.34
2018-11-01T22:35:47.597Z,98627.54
2018-11-01T22:38:52.767Z,98631.09
2018-11-01T22:41:57.733Z,98619.92
2018-11-01T22:45:03.308Z,98616.81
2018-11-01T22:48:08.385Z,98616.72
2018-11-01T22:51:13.593Z,98636.64
2018-11-01T22:54:18.603Z,98642.02
2018-11-01T22:57:23.810Z,98648.92
2018-11-01T23:03:34.875Z,98668.91
2018-11-01T23:06:39.879Z,98683.76
2018-11-01T23:09:44.865Z,98696.76
2018-11-01T23:16:48.837Z,98706.59
2018-11-01T23:19:53.878Z,98710.88
2018-11-01T23:22:58.926Z,98722.08
2018-11-01T23:26:04.586Z,98728.16
2018-11-01T23:29:09.522Z,98730.92
2018-11-01T23:32:14.552Z,98725.12
2018-11-01T23:35:21.193Z,98720.45
2018-11-01T23:38:31.955Z,98723.56
2018-11-01T23:41:42.629Z,98718.09
2018-11-01T23:44:53.454Z,98722.50
2018-11-01T23:47:58.862Z,98732.69
2018-11-01T23:51:07.575Z,98728.31
2018-11-01T23:54:12.549Z,98722.52
2018-11-01T23:57:17.538Z,98728.17
